| Date | Time | Temp. (oF) | Dew Point (oF) | Rel. Hum. (%) | Press. (in.) | Wind Dir. | Wind Speed (mph) | Hourly Rainfall (in.) |
|
|---|---|---|---|---|---|---|---|---|---|
| 1 | 10/16 | 00:00 | 58 | 42 | 56 | 29.75 | W | 5 | 0.00 |
| 2 | 10/15 | 23:00 | 59 | 41 | 53 | 29.75 | NNW | 5 | 0.00 |
| 3 | 10/15 | 22:00 | 61 | 41 | 48 | 29.74 | W | 6 | 0.00 |
| 4 | 10/15 | 21:00 | 63 | 41 | 45 | 29.73 | W | 8 | 0.00 |
| 5 | 10/15 | 20:00 | 64 | 40 | 42 | 29.70 | NW | 4 | 0.00 |
| 6 | 10/15 | 19:00 | 66 | 41 | 41 | 29.67 | NW | 7 | 0.00 |
| 7 | 10/15 | 18:00 | 68 | 43 | 42 | 29.64 | NW | 4 | 0.00 |
| 8 | 10/15 | 17:00 | 71 | 47 | 44 | 29.62 | W | 7 | 0.00 |
| 9 | 10/15 | 16:00 | 73 | 50 | 46 | 29.62 | WSW | 20 | 0.00 |
| 10 | 10/15 | 15:00 | 73 | 55 | 54 | 29.61 | WSW | 9 | 0.00 |
| 11 | 10/15 | 14:00 | 75 | 56 | 53 | 29.61 | W | 10 | 0.00 |
| 12 | 10/15 | 13:00 | 74 | 59 | 60 | 29.64 | W | 14 | 0.00 |
| 13 | 10/15 | 12:00 | 71 | 59 | 66 | 29.68 | NW | 6 | 0.00 |
| 14 | 10/15 | 11:00 | 66 | 59 | 80 | 29.71 | SSW | 3 | 0.00 |
| 15 | 10/15 | 10:00 | 63 | 59 | 87 | 29.75 | NNW | 3 | 0.00 |
| 16 | 10/15 | 09:00 | 59 | 57 | 95 | 29.76 | NNW | 4 | 0.00 |
| 17 | 10/15 | 08:00 | 55 | 54 | 98 | 29.77 | W | 3 | 0.00 |
| 18 | 10/15 | 07:00 | 55 | 54 | 97 | 29.78 | WSW | 1 | 0.00 |
| 19 | 10/15 | 06:00 | 57 | 55 | 96 | 29.77 | W | 1 | 0.00 |
| 20 | 10/15 | 05:00 | 58 | 56 | 94 | 29.77 | W | 3 | 0.00 |
| 21 | 10/15 | 04:00 | 58 | 56 | 94 | 29.77 | NW | 4 | 0.00 |
| 22 | 10/15 | 03:00 | 59 | 56 | 92 | 29.78 | WNW | 3 | 0.00 |
| 23 | 10/15 | 02:00 | 60 | 57 | 91 | 29.80 | WNW | 3 | 0.00 |
| 24 | 10/15 | 01:00 | 62 | 59 | 90 | 29.82 | WNW | 4 | 0.00 |